createdAt,value
2022-09-25T00:01:08.098Z,12.99
2022-09-25T00:03:36.478Z,12.96
2022-09-25T00:06:05.634Z,12.94
2022-09-25T00:08:34.027Z,13.03
2022-09-25T00:11:02.462Z,13.03
2022-09-25T00:13:32.170Z,13.15
2022-09-25T00:16:03.298Z,13.07
2022-09-25T00:18:45.445Z,13.13
2022-09-25T00:21:14.778Z,13.02
2022-09-25T00:23:43.785Z,12.97
2022-09-25T00:26:13.205Z,13.19
2022-09-25T00:28:43.298Z,13.15
2022-09-25T00:31:11.849Z,13.18
2022-09-25T00:33:40.774Z,13.00
2022-09-25T00:36:10.488Z,12.98
2022-09-25T00:38:39.255Z,13.03
2022-09-25T00:41:08.159Z,13.08
2022-09-25T00:43:55.917Z,12.94
2022-09-25T00:46:26.642Z,12.97
2022-09-25T00:48:56.613Z,12.97
2022-09-25T00:51:29.222Z,12.90
2022-09-25T00:53:58.589Z,13.00
2022-09-25T00:56:26.895Z,13.04
2022-09-25T00:58:55.687Z,12.95
2022-09-25T01:01:25.773Z,13.03
2022-09-25T01:03:56.253Z,13.05
2022-09-25T01:06:25.211Z,12.99
2022-09-25T01:08:53.479Z,12.78
2022-09-25T01:11:22.852Z,12.88
2022-09-25T01:13:51.170Z,12.87
2022-09-25T01:16:21.754Z,12.88
2022-09-25T01:18:59.379Z,12.78
2022-09-25T01:21:32.519Z,12.72
2022-09-25T01:24:20.680Z,12.72
2022-09-25T01:27:00.345Z,12.69
2022-09-25T01:29:31.482Z,12.72
2022-09-25T01:32:03.449Z,12.66
2022-09-25T01:34:36.535Z,12.68
2022-09-25T01:37:07.247Z,12.59
2022-09-25T01:39:37.921Z,12.57
2022-09-25T01:42:08.823Z,12.54
2022-09-25T01:44:38.948Z,12.53
2022-09-25T01:47:09.298Z,12.64
2022-09-25T01:49:38.897Z,12.60
2022-09-25T01:52:09.579Z,12.57
2022-09-25T01:54:40.259Z,12.62
2022-09-25T01:57:11.982Z,12.64
2022-09-25T01:59:44.391Z,12.77
2022-09-25T02:02:15.005Z,12.72
2022-09-25T02:04:44.499Z,12.56
2022-09-25T02:07:14.452Z,12.47
2022-09-25T02:09:44.292Z,12.28
2022-09-25T02:12:14.286Z,12.23
2022-09-25T02:14:46.788Z,12.06
2022-09-25T02:17:36.671Z,12.08
2022-09-25T02:20:19.245Z,11.95
2022-09-25T02:22:47.530Z,11.92
2022-09-25T02:25:18.575Z,12.08
2022-09-25T02:27:46.838Z,12.11
2022-09-25T02:30:17.583Z,12.07
2022-09-25T02:32:45.858Z,12.15
2022-09-25T02:35:14.579Z,12.09
2022-09-25T02:37:42.871Z,12.03
2022-09-25T02:40:12.259Z,12.08
2022-09-25T02:42:45.143Z,12.11
2022-09-25T02:45:21.172Z,12.15
2022-09-25T02:47:57.426Z,12.27
2022-09-25T02:50:27.603Z,12.17
2022-09-25T02:53:02.861Z,12.23
2022-09-25T02:55:35.709Z,12.12
2022-09-25T02:58:06.208Z,12.17
2022-09-25T03:00:36.394Z,12.12
2022-09-25T03:03:06.395Z,12.09
2022-09-25T03:05:34.657Z,11.99
2022-09-25T03:08:16.909Z,12.04
2022-09-25T03:10:46.798Z,12.16
2022-09-25T03:13:16.585Z,12.20
2022-09-25T03:15:47.291Z,12.13
2022-09-25T03:18:15.608Z,12.02
2022-09-25T03:20:52.772Z,12.02
2022-09-25T03:23:21.062Z,12.00
2022-09-25T03:25:50.535Z,12.08
2022-09-25T03:28:18.923Z,12.08
2022-09-25T03:30:57.121Z,11.94
2022-09-25T03:33:25.602Z,11.88
2022-09-25T03:36:02.585Z,12.02
2022-09-25T03:38:30.884Z,11.97
2022-09-25T03:40:59.209Z,11.92
2022-09-25T03:43:27.612Z,11.97
2022-09-25T03:45:57.334Z,11.90
2022-09-25T03:48:25.747Z,11.91
2022-09-25T03:50:56.425Z,11.84
2022-09-25T03:53:24.709Z,11.85
2022-09-25T03:55:52.984Z,11.84
2022-09-25T03:58:23.781Z,11.89
2022-09-25T04:00:52.110Z,11.88
2022-09-25T04:03:22.705Z,11.84
2022-09-25T04:05:51.016Z,11.84
2022-09-25T04:08:19.320Z,11.78
2022-09-25T04:10:48.149Z,11.76
2022-09-25T04:13:17.263Z,11.75
2022-09-25T04:15:47.110Z,11.63
2022-09-25T04:18:15.382Z,11.66
2022-09-25T04:20:45.311Z,11.66
2022-09-25T04:23:16.090Z,11.74
2022-09-25T04:25:44.403Z,11.61
2022-09-25T04:28:12.686Z,11.60
2022-09-25T04:30:41.433Z,11.64
2022-09-25T04:33:24.306Z,11.52
2022-09-25T04:35:54.236Z,11.55
2022-09-25T04:38:22.821Z,11.55
2022-09-25T04:40:51.290Z,11.40
2022-09-25T04:43:19.632Z,11.44
2022-09-25T04:45:48.258Z,11.53
2022-09-25T04:48:16.585Z,11.43
2022-09-25T04:50:49.106Z,11.55
2022-09-25T04:53:18.938Z,11.48
2022-09-25T04:55:48.274Z,11.43
2022-09-25T04:58:16.535Z,11.47
2022-09-25T05:00:45.052Z,11.43
2022-09-25T05:03:13.499Z,11.43
2022-09-25T05:05:41.978Z,11.35
2022-09-25T05:08:11.070Z,11.37
2022-09-25T05:13:28.306Z,11.38
2022-09-25T05:15:57.355Z,11.43
2022-09-25T05:18:25.887Z,11.34
2022-09-25T05:20:54.706Z,11.48
2022-09-25T05:23:24.071Z,11.40
2022-09-25T05:25:55.395Z,11.50
2022-09-25T05:28:24.951Z,11.49
2022-09-25T05:30:53.680Z,11.32
2022-09-25T05:33:22.031Z,11.33
2022-09-25T05:35:50.288Z,11.34
2022-09-25T05:38:19.048Z,11.39
2022-09-25T05:40:47.793Z,11.40
2022-09-25T05:43:17.908Z,11.42
2022-09-25T05:46:04.701Z,11.38
2022-09-25T05:48:33.043Z,11.45
2022-09-25T05:51:01.364Z,11.35
2022-09-25T05:53:34.254Z,11.48
2022-09-25T05:56:09.229Z,11.46
2022-09-25T05:58:59.604Z,11.51
2022-09-25T06:01:31.209Z,11.59
2022-09-25T06:03:59.511Z,11.65
2022-09-25T06:06:27.954Z,11.61
2022-09-25T06:08:56.441Z,11.49
2022-09-25T06:11:25.232Z,11.52
2022-09-25T06:14:13.489Z,11.36
2022-09-25T06:16:41.876Z,11.29
2022-09-25T06:19:10.600Z,11.25
2022-09-25T06:21:38.879Z,11.32
2022-09-25T06:24:07.378Z,11.42
2022-09-25T06:26:35.660Z,11.43
2022-09-25T06:29:04.272Z,11.21
2022-09-25T06:31:34.257Z,11.31
2022-09-25T06:34:03.937Z,11.42
2022-09-25T06:36:32.298Z,11.46
2022-09-25T06:39:00.586Z,11.53
2022-09-25T06:41:29.846Z,11.45
2022-09-25T06:44:15.361Z,11.51
2022-09-25T06:47:03.580Z,11.46
2022-09-25T06:49:48.955Z,11.52
2022-09-25T06:52:17.347Z,11.56
2022-09-25T06:54:45.688Z,11.44
2022-09-25T06:57:13.995Z,11.45
2022-09-25T06:59:42.292Z,11.46
2022-09-25T07:02:26.021Z,11.44
2022-09-25T07:04:54.402Z,11.48
2022-09-25T07:07:24.384Z,11.49
2022-09-25T07:09:52.761Z,11.45
2022-09-25T07:12:22.179Z,11.50
2022-09-25T07:14:50.960Z,11.55
2022-09-25T07:17:20.611Z,11.69
2022-09-25T07:19:52.070Z,11.71
2022-09-25T07:22:20.431Z,11.84
2022-09-25T07:24:48.762Z,11.91
2022-09-25T07:27:17.025Z,12.08
2022-09-25T07:29:45.366Z,11.92
2022-09-25T07:37:47.731Z,12.05
2022-09-25T07:40:16.150Z,12.16
2022-09-25T07:42:44.509Z,12.20
2022-09-25T07:45:13.316Z,12.22
2022-09-25T07:47:41.650Z,12.31
2022-09-25T07:50:15.404Z,12.44
2022-09-25T07:52:44.135Z,12.48
2022-09-25T07:55:12.427Z,12.47
2022-09-25T07:57:42.927Z,12.63
2022-09-25T08:00:12.312Z,12.53
2022-09-25T08:02:41.691Z,12.72
2022-09-25T08:05:14.683Z,12.82
2022-09-25T08:07:43.062Z,12.92
2022-09-25T08:10:11.941Z,12.75
2022-09-25T08:12:49.666Z,12.73
2022-09-25T08:15:18.202Z,12.71
2022-09-25T08:17:46.504Z,12.85
2022-09-25T08:20:16.367Z,12.66
2022-09-25T08:22:44.727Z,12.68
2022-09-25T08:25:13.178Z,12.71
2022-09-25T08:27:42.574Z,12.77
2022-09-25T08:30:13.965Z,13.01
2022-09-25T08:32:42.342Z,12.88
2022-09-25T08:35:11.165Z,12.99
2022-09-25T08:37:43.273Z,13.13
2022-09-25T08:40:18.307Z,13.24
2022-09-25T08:42:47.205Z,12.96
2022-09-25T08:45:39.919Z,12.70
2022-09-25T08:48:22.726Z,13.03
2022-09-25T08:50:53.524Z,13.18
2022-09-25T08:53:25.380Z,13.45
2022-09-25T08:56:07.517Z,13.80
2022-09-25T08:58:43.332Z,13.71
2022-09-25T09:01:15.016Z,13.58
2022-09-25T09:03:46.953Z,13.69
2022-09-25T09:06:17.106Z,13.70
2022-09-25T09:08:49.090Z,13.66
2022-09-25T09:11:19.461Z,13.30
2022-09-25T09:13:49.755Z,13.56
2022-09-25T09:16:21.162Z,13.50
2022-09-25T09:18:49.416Z,13.46
2022-09-25T09:21:22.803Z,13.61
2022-09-25T09:23:55.240Z,13.48
2022-09-25T09:26:26.379Z,13.54
2022-09-25T09:29:07.223Z,13.67
2022-09-25T09:31:41.698Z,13.91
2022-09-25T09:34:52.941Z,13.94
2022-09-25T09:37:22.498Z,13.69
2022-09-25T09:40:12.176Z,13.46
2022-09-25T09:42:44.318Z,13.55
2022-09-25T09:45:33.646Z,13.16
2022-09-25T09:48:06.849Z,13.35
2022-09-25T09:50:43.806Z,13.54
2022-09-25T09:53:19.271Z,13.70
2022-09-25T09:55:50.956Z,13.73
2022-09-25T09:58:21.652Z,13.72
2022-09-25T10:00:50.244Z,13.91
2022-09-25T10:03:20.199Z,14.13
2022-09-25T10:05:49.363Z,14.15
2022-09-25T10:08:18.778Z,14.31
2022-09-25T10:10:51.467Z,14.40
2022-09-25T10:13:21.707Z,14.64
2022-09-25T10:15:52.984Z,14.65
2022-09-25T10:18:22.451Z,15.01
2022-09-25T10:20:52.844Z,14.79
2022-09-25T10:23:35.216Z,14.77
2022-09-25T10:26:07.378Z,14.49
2022-09-25T10:31:40.701Z,14.27
2022-09-25T10:34:21.622Z,14.52
2022-09-25T10:36:51.393Z,14.37
2022-09-25T10:39:45.833Z,14.43
2022-09-25T10:42:36.363Z,14.48
2022-09-25T10:45:18.065Z,14.58
2022-09-25T10:48:05.815Z,14.63
2022-09-25T10:50:34.471Z,15.08
2022-09-25T10:53:04.309Z,15.39
2022-09-25T10:55:34.176Z,15.16
2022-09-25T10:58:10.622Z,14.96
2022-09-25T11:00:43.703Z,14.94
2022-09-25T11:03:21.467Z,14.81
2022-09-25T11:06:10.507Z,15.05
2022-09-25T11:08:41.499Z,15.15
2022-09-25T11:11:10.671Z,15.32
2022-09-25T11:13:46.479Z,15.34
2022-09-25T11:16:14.869Z,15.35
2022-09-25T11:18:45.330Z,15.42
2022-09-25T11:21:21.906Z,15.11
2022-09-25T11:24:14.709Z,15.14
2022-09-25T11:26:44.705Z,15.27
2022-09-25T11:29:17.146Z,15.22
2022-09-25T11:31:47.868Z,15.47
2022-09-25T11:34:21.324Z,15.67
2022-09-25T11:36:50.733Z,15.52
2022-09-25T11:39:37.739Z,15.25
2022-09-25T11:42:08.305Z,15.21
2022-09-25T11:44:40.306Z,15.49
2022-09-25T11:47:13.046Z,15.60
2022-09-25T11:49:41.482Z,15.81
2022-09-25T11:52:29.602Z,15.57
2022-09-25T11:55:33.624Z,15.53
2022-09-25T11:58:09.866Z,15.42
2022-09-25T12:00:45.648Z,15.33
2022-09-25T12:03:25.782Z,15.49
2022-09-25T12:06:06.947Z,15.61
2022-09-25T12:08:58.093Z,15.45
2022-09-25T12:11:30.525Z,15.74
2022-09-25T12:14:03.654Z,15.99
2022-09-25T12:16:52.683Z,15.84
2022-09-25T12:19:29.516Z,15.71
2022-09-25T12:22:01.328Z,15.83
2022-09-25T12:24:37.033Z,15.80
2022-09-25T12:27:09.895Z,15.81
2022-09-25T12:29:46.719Z,15.72
2022-09-25T12:32:22.049Z,15.76
2022-09-25T12:34:58.254Z,15.61
2022-09-25T12:37:32.424Z,15.83
2022-09-25T12:40:19.125Z,15.65
2022-09-25T12:42:52.255Z,15.76
2022-09-25T12:45:23.404Z,15.77
2022-09-25T12:48:01.403Z,15.74
2022-09-25T12:50:36.113Z,15.87
2022-09-25T12:53:07.015Z,15.84
2022-09-25T12:55:38.886Z,15.76
2022-09-25T12:58:28.522Z,15.89
2022-09-25T13:00:59.407Z,16.00
2022-09-25T13:03:37.384Z,15.79
2022-09-25T13:06:26.751Z,15.74
2022-09-25T13:08:58.129Z,15.96
2022-09-25T13:11:36.206Z,15.98
2022-09-25T13:14:22.035Z,16.16
2022-09-25T13:16:50.358Z,15.94
2022-09-25T13:22:14.363Z,16.06
2022-09-25T13:24:50.496Z,15.94
2022-09-25T13:30:20.581Z,15.53
2022-09-25T13:32:49.514Z,15.44
2022-09-25T13:35:37.634Z,15.67
2022-09-25T13:38:11.816Z,15.73
2022-09-25T13:40:42.899Z,15.74
2022-09-25T13:43:20.973Z,15.75
2022-09-25T13:45:50.461Z,15.92
2022-09-25T13:48:35.756Z,15.74
2022-09-25T13:51:34.847Z,15.81
2022-09-25T13:54:05.117Z,16.00
2022-09-25T13:56:48.616Z,16.22
2022-09-25T13:59:36.406Z,16.22
2022-09-25T14:02:34.280Z,16.39
2022-09-25T14:05:02.631Z,16.32
2022-09-25T14:07:32.302Z,16.46
2022-09-25T14:10:02.103Z,16.69
2022-09-25T14:12:39.286Z,16.30
2022-09-25T14:15:09.372Z,16.07
2022-09-25T14:17:38.497Z,15.94
2022-09-25T14:20:11.306Z,15.67
2022-09-25T14:22:46.640Z,15.65
2022-09-25T14:25:28.529Z,15.59
2022-09-25T14:27:57.053Z,15.78
2022-09-25T14:30:29.354Z,15.44
2022-09-25T14:33:06.863Z,15.63
2022-09-25T14:35:38.825Z,15.91
2022-09-25T14:38:36.038Z,15.75
2022-09-25T14:41:18.908Z,15.73
2022-09-25T14:43:55.435Z,15.82
2022-09-25T14:46:23.894Z,15.80
2022-09-25T14:48:54.479Z,16.01
2022-09-25T14:51:25.821Z,15.85
2022-09-25T14:56:42.949Z,16.01
2022-09-25T14:59:28.107Z,16.07
2022-09-25T15:01:56.542Z,16.16
2022-09-25T15:04:28.303Z,15.73
2022-09-25T15:07:01.579Z,15.74
2022-09-25T15:09:32.570Z,16.05
2022-09-25T15:12:01.276Z,15.72
2022-09-25T15:14:29.563Z,15.95
2022-09-25T15:17:11.617Z,15.73
2022-09-25T15:19:42.737Z,15.69
2022-09-25T15:22:11.741Z,15.87
2022-09-25T15:24:41.739Z,15.66
2022-09-25T15:27:13.606Z,15.67
2022-09-25T15:29:44.148Z,15.81
2022-09-25T15:32:17.792Z,15.63
2022-09-25T15:34:46.136Z,15.88
2022-09-25T15:37:23.772Z,15.90
2022-09-25T15:39:53.581Z,15.64
2022-09-25T15:42:22.283Z,16.01
2022-09-25T15:44:50.979Z,15.91
2022-09-25T15:47:50.831Z,15.66
2022-09-25T15:50:23.351Z,15.49
2022-09-25T15:53:10.000Z,15.62
2022-09-25T15:55:40.613Z,15.38
2022-09-25T15:58:15.767Z,15.45
2022-09-25T16:01:13.337Z,15.27
2022-09-25T16:03:57.498Z,15.27
2022-09-25T16:06:26.415Z,15.33
2022-09-25T16:09:09.175Z,15.37
2022-09-25T16:11:39.016Z,15.39
2022-09-25T16:14:22.196Z,15.27
2022-09-25T16:16:53.978Z,15.38
2022-09-25T16:19:30.304Z,15.42
2022-09-25T16:22:03.562Z,15.40
2022-09-25T16:24:32.294Z,15.19
2022-09-25T16:27:02.681Z,15.33
2022-09-25T16:29:31.708Z,15.37
2022-09-25T16:32:02.435Z,15.26
2022-09-25T16:34:32.129Z,15.10
2022-09-25T16:37:03.138Z,15.14
2022-09-25T16:39:33.315Z,15.01
2022-09-25T16:42:04.637Z,15.16
2022-09-25T16:44:47.277Z,14.87
2022-09-25T16:47:18.065Z,14.64
2022-09-25T16:49:46.401Z,14.56
2022-09-25T16:52:20.782Z,14.58
2022-09-25T16:54:53.910Z,14.42
2022-09-25T16:57:45.945Z,14.20
2022-09-25T17:00:16.976Z,14.26
2022-09-25T17:02:45.913Z,14.12
2022-09-25T17:05:18.113Z,14.04
2022-09-25T17:07:48.365Z,13.96
2022-09-25T17:10:17.352Z,13.86
2022-09-25T17:12:53.318Z,13.78
2022-09-25T17:15:24.039Z,13.65
2022-09-25T17:17:55.849Z,13.63
2022-09-25T17:20:26.426Z,13.61
2022-09-25T17:22:55.697Z,13.74
2022-09-25T17:25:31.986Z,13.70
2022-09-25T17:28:01.651Z,13.52
2022-09-25T17:30:30.479Z,13.43
2022-09-25T17:32:59.039Z,13.48
2022-09-25T17:35:32.589Z,13.23
2022-09-25T17:38:02.582Z,13.18
2022-09-25T17:40:31.204Z,13.03
2022-09-25T17:42:59.522Z,12.97
2022-09-25T17:45:33.217Z,13.06
2022-09-25T17:48:18.766Z,13.02
2022-09-25T17:50:47.067Z,12.93
2022-09-25T17:53:17.775Z,13.02
2022-09-25T17:55:51.201Z,13.09
2022-09-25T17:58:40.702Z,12.99
2022-09-25T18:01:14.109Z,13.01
2022-09-25T18:03:42.492Z,13.08
2022-09-25T18:06:10.790Z,13.04
2022-09-25T18:08:58.926Z,13.07
2022-09-25T18:11:27.408Z,12.98
2022-09-25T18:13:57.605Z,12.88
2022-09-25T18:16:52.402Z,12.73
2022-09-25T18:19:55.274Z,12.58
2022-09-25T18:22:25.743Z,12.62
2022-09-25T18:24:57.095Z,12.45
2022-09-25T18:27:25.826Z,12.42
2022-09-25T18:29:54.085Z,12.38
2022-09-25T18:32:25.266Z,12.41
2022-09-25T18:34:53.822Z,12.39
2022-09-25T18:37:22.253Z,12.32
2022-09-25T18:39:51.043Z,12.46
2022-09-25T18:42:19.351Z,12.38
2022-09-25T18:44:47.854Z,12.35
2022-09-25T18:47:16.453Z,12.24
2022-09-25T18:49:46.196Z,12.31
2022-09-25T18:52:14.735Z,12.29
2022-09-25T18:54:43.080Z,12.32
2022-09-25T18:57:12.479Z,12.30
2022-09-25T18:59:40.806Z,12.44
2022-09-25T19:02:17.680Z,12.41
2022-09-25T19:04:48.008Z,12.47
2022-09-25T19:07:17.046Z,12.51
2022-09-25T19:09:45.328Z,12.40
2022-09-25T19:12:17.223Z,12.41
2022-09-25T19:14:45.570Z,12.31
2022-09-25T19:17:16.420Z,12.28
2022-09-25T19:19:44.744Z,12.19
2022-09-25T19:22:16.113Z,12.16
2022-09-25T19:24:46.370Z,12.26
2022-09-25T19:27:15.732Z,12.08
2022-09-25T19:29:44.178Z,11.95
2022-09-25T19:32:13.591Z,11.96
2022-09-25T19:34:42.053Z,11.95
2022-09-25T19:37:11.168Z,11.91
2022-09-25T19:39:55.269Z,11.75
2022-09-25T19:42:23.938Z,11.64
2022-09-25T19:44:54.283Z,11.81
2022-09-25T19:47:22.775Z,11.69
2022-09-25T19:50:08.920Z,11.56
2022-09-25T19:52:38.386Z,11.70
2022-09-25T19:55:08.880Z,11.58
2022-09-25T19:57:37.377Z,11.55
2022-09-25T20:00:06.433Z,11.47
2022-09-25T20:02:34.891Z,11.50
2022-09-25T20:05:03.331Z,11.50
2022-09-25T20:07:31.677Z,11.23
2022-09-25T20:10:00.369Z,11.29
2022-09-25T20:12:30.126Z,11.09
2022-09-25T20:14:58.489Z,11.12
2022-09-25T20:17:27.350Z,11.14
2022-09-25T20:19:55.924Z,11.09
2022-09-25T20:22:24.263Z,10.98
2022-09-25T20:24:52.763Z,11.00
2022-09-25T20:27:26.064Z,11.15
2022-09-25T20:29:55.906Z,11.10
2022-09-25T20:32:24.190Z,11.09
2022-09-25T20:34:53.153Z,11.07
2022-09-25T20:37:21.455Z,11.21
2022-09-25T20:40:19.440Z,11.22
2022-09-25T20:42:48.423Z,11.19
2022-09-25T20:45:19.041Z,11.36
2022-09-25T20:47:48.165Z,11.31
2022-09-25T20:50:17.335Z,11.37
2022-09-25T20:52:46.363Z,11.45
2022-09-25T20:55:19.060Z,11.43
2022-09-25T20:57:47.385Z,11.32
2022-09-25T21:00:19.403Z,11.37
2022-09-25T21:02:50.083Z,11.47
2022-09-25T21:05:18.460Z,11.42
2022-09-25T21:07:46.819Z,11.40
2022-09-25T21:10:17.020Z,11.31
2022-09-25T21:12:45.751Z,11.37
2022-09-25T21:15:14.039Z,11.37
2022-09-25T21:17:43.898Z,11.43
2022-09-25T21:20:12.774Z,11.40
2022-09-25T21:22:41.304Z,11.30
2022-09-25T21:25:10.323Z,11.34
2022-09-25T21:27:38.937Z,11.22
2022-09-25T21:30:07.974Z,11.09
2022-09-25T21:32:36.297Z,11.07
2022-09-25T21:35:06.164Z,11.03
2022-09-25T21:37:35.911Z,11.01
2022-09-25T21:40:05.641Z,11.03
2022-09-25T21:42:34.119Z,10.90
2022-09-25T21:47:50.888Z,10.85
2022-09-25T21:50:20.560Z,10.75
2022-09-25T21:52:48.839Z,10.75
2022-09-25T21:55:17.378Z,10.87
2022-09-25T21:57:46.083Z,10.91
2022-09-25T22:00:16.925Z,10.80
2022-09-25T22:02:45.359Z,10.73
2022-09-25T22:05:15.890Z,10.69
2022-09-25T22:07:46.660Z,10.69
2022-09-25T22:10:14.946Z,10.73
2022-09-25T22:12:43.313Z,10.72
2022-09-25T22:15:12.215Z,10.71
2022-09-25T22:17:40.511Z,10.75
2022-09-25T22:20:11.380Z,10.63
2022-09-25T22:22:40.121Z,10.70
2022-09-25T22:25:10.312Z,10.70
2022-09-25T22:27:41.498Z,10.67
2022-09-25T22:30:15.498Z,10.84
2022-09-25T22:32:46.364Z,10.78
2022-09-25T23:05:43.007Z,10.31
2022-09-25T23:35:41.503Z,10.19
2022-09-25T23:38:51.779Z,10.16
2022-09-25T23:41:21.064Z,10.38
2022-09-25T23:44:33.057Z,10.47
2022-09-25T23:51:35.918Z,10.47
2022-09-25T23:54:05.699Z,10.35
2022-09-25T23:56:34.807Z,10.28
2022-09-25T23:59:27.121Z,10.19
